Time;durP1;ratioP1;P1;durP2;ratioP2;P2;SDS_P1;SDS_P2;PMS_P1;PMS_P2;Temp;Humidity;BMP_temperature;BMP_pressure;BME280_temperature;BME280_humidity;BME280_pressure;Samples;Min_cycle;Max_cycle;Signal;HPM_P1;HPM_P2
2022/11/10 00:00:41;;;;;;;;;23.25;16.75;;;;;11.96;100.00;101821.66;5094226;27;62891;-77
2022/11/10 00:03:08;;;;;;;;;17.00;15.00;;;;;11.95;100.00;101825.16;5096078;27;45176;-75
2022/11/10 00:05:36;;;;;;;;;26.00;17.75;;;;;11.95;100.00;101833.09;5094571;27;45458;-77
2022/11/10 00:08:06;;;;;;;;;18.25;15.75;;;;;11.94;100.00;101826.03;5098466;27;47337;-75
2022/11/10 00:10:55;;;;;;;;;20.75;16.00;;;;;11.92;100.00;101823.34;5098890;27;45458;-75
2022/11/10 00:13:17;;;;;;;;;20.50;16.50;;;;;11.87;100.00;101824.97;5099174;27;45531;-76
2022/11/10 00:18:27;;;;;;;;;6.75;6.75;;;;;11.85;100.00;101826.72;5119998;22;46678;-77
2022/11/10 00:20:52;;;;;;;;;23.50;16.50;;;;;11.87;100.00;101839.97;5099399;27;65138;-76
2022/11/10 00:23:17;;;;;;;;;16.50;16.00;;;;;11.81;100.00;101840.69;5119098;27;62906;-76
2022/11/10 00:25:43;;;;;;;;;17.00;15.25;;;;;11.75;100.00;101830.00;5118806;27;59117;-77
2022/11/10 00:28:08;;;;;;;;;19.75;17.75;;;;;11.82;100.00;101846.91;5116615;27;65740;-77
2022/11/10 00:30:36;;;;;;;;;20.50;16.00;;;;;11.79;100.00;101848.63;5109924;27;47189;-77
2022/11/10 00:33:01;;;;;;;;;20.00;17.25;;;;;11.77;100.00;101844.13;5119690;27;45365;-75
2022/11/10 00:35:27;;;;;;;;;15.25;14.25;;;;;11.82;100.00;101846.91;5118659;27;55322;-76
2022/11/10 00:37:52;;;;;;;;;22.75;18.00;;;;;11.71;100.00;101834.31;5118191;27;70539;-76
2022/11/10 00:40:18;;;;;;;;;17.25;13.50;;;;;11.70;100.00;101832.53;5118959;27;63981;-77
2022/11/10 00:42:43;;;;;;;;;17.75;15.25;;;;;11.77;100.00;101855.63;5119052;27;46438;-78
2022/11/10 00:45:09;;;;;;;;;24.00;15.25;;;;;11.75;100.00;101861.75;5118085;27;57984;-77
2022/11/10 00:47:34;;;;;;;;;21.00;17.50;;;;;11.73;100.00;101864.34;5118990;27;46074;-77
2022/11/10 00:49:59;;;;;;;;;16.75;12.25;;;;;11.73;100.00;101872.28;5117376;27;64194;-76
2022/11/10 00:52:25;;;;;;;;;17.50;16.00;;;;;11.67;100.00;101858.03;5119686;27;45248;-77
2022/11/10 00:54:50;;;;;;;;;17.25;15.25;;;;;11.70;100.00;101866.03;5118623;27;54670;-76
2022/11/10 00:57:15;;;;;;;;;23.25;17.50;;;;;11.64;100.00;101865.91;5117839;27;62845;-78
2022/11/10 00:59:41;;;;;;;;;14.25;13.50;;;;;11.68;100.00;101876.59;5118572;27;63339;-76
2022/11/10 01:02:06;;;;;;;;;16.75;15.75;;;;;11.63;100.00;101870.28;5116782;27;45700;-76
2022/11/10 01:04:32;;;;;;;;;15.00;14.25;;;;;11.68;100.00;101881.88;5118658;27;45456;-76
2022/11/10 01:06:57;;;;;;;;;15.50;13.75;;;;;11.65;100.00;101873.84;5117802;27;47263;-77
2022/11/10 01:09:23;;;;;;;;;19.75;14.25;;;;;11.66;100.00;101882.69;5117553;27;63279;-77
2022/11/10 01:11:48;;;;;;;;;17.50;11.00;;;;;11.61;100.00;101869.38;5119123;27;45466;-77
2022/11/10 01:14:14;;;;;;;;;15.50;12.50;;;;;11.63;100.00;101885.28;5118827;27;45192;-76
2022/11/10 01:16:39;;;;;;;;;14.50;12.00;;;;;11.58;100.00;101881.63;5099223;27;67504;-76
2022/11/10 01:19:04;;;;;;;;;16.25;15.00;;;;;11.55;100.00;101874.50;5117854;27;45236;-76
2022/11/10 01:21:30;;;;;;;;;15.75;10.50;;;;;11.54;100.00;101881.53;5118435;27;45729;-76
2022/11/10 01:23:55;;;;;;;;;14.00;10.00;;;;;11.52;100.00;101880.63;5118552;27;45256;-77
2022/11/10 01:26:21;;;;;;;;;13.75;10.00;;;;;11.57;100.00;101888.66;5118125;27;49770;-77
2022/11/10 01:28:47;;;;;;;;;15.50;12.50;;;;;11.54;100.00;101894.75;5100271;27;45321;-76
2022/11/10 01:31:19;;;;;;;;;17.25;11.00;;;;;11.53;100.00;101898.28;5118702;27;45422;-76
2022/11/10 01:33:44;;;;;;;;;14.00;10.00;;;;;11.49;100.00;101888.47;5116456;27;45402;-76
2022/11/10 01:36:10;;;;;;;;;10.75;10.25;;;;;11.49;100.00;101890.22;5104645;27;45927;-76
2022/11/10 01:38:39;;;;;;;;;15.00;12.25;;;;;11.43;100.00;101890.06;5115871;27;45467;-76
2022/11/10 01:41:07;;;;;;;;;15.75;10.50;;;;;11.47;100.00;101899.88;5106291;27;45469;-76
2022/11/10 01:43:32;;;;;;;;;11.00;11.00;;;;;11.51;100.00;101910.56;5099801;27;45428;-76
2022/11/10 01:46:05;;;;;;;;;12.25;11.00;;;;;11.49;100.00;101912.28;5113540;27;64870;-76
2022/11/10 01:48:39;;;;;;;;;13.50;11.50;;;;;11.48;100.00;101910.50;5117369;27;45246;-77
2022/11/10 01:51:14;;;;;;;;;13.75;11.50;;;;;11.42;100.00;101907.69;5099387;27;45539;-77
2022/11/10 01:53:41;;;;;;;;;10.00;10.00;;;;;11.40;100.00;101916.44;5118612;27;45417;-76
2022/11/10 01:56:08;;;;;;;;;12.00;10.25;;;;;11.42;100.00;101923.56;5115237;27;46294;-77
2022/11/10 01:58:38;;;;;;;;;11.00;9.75;;;;;11.40;100.00;101917.34;5114788;27;45437;-77
2022/11/10 02:01:05;;;;;;;;;16.00;12.00;;;;;11.39;100.00;101910.25;5116000;27;45296;-76
2022/11/10 02:03:41;;;;;;;;;10.75;10.75;;;;;11.37;100.00;101924.31;5117895;27;45494;-76
2022/11/10 02:06:07;;;;;;;;;14.75;13.50;;;;;11.37;100.00;101925.19;5096992;27;47468;-75
2022/11/10 02:08:33;;;;;;;;;18.00;12.50;;;;;11.36;100.00;101933.09;5099461;27;56862;-78
2022/11/10 02:10:58;;;;;;;;;14.50;11.50;;;;;11.32;100.00;101933.88;5098788;27;65308;-76
2022/11/10 02:13:24;;;;;;;;;13.00;11.75;;;;;11.26;100.00;101926.69;5116935;27;59106;-76
2022/11/10 02:15:49;;;;;;;;;12.50;8.50;;;;;11.28;100.00;101935.53;5117085;27;67509;-76
2022/11/10 02:18:14;;;;;;;;;12.50;10.25;;;;;11.21;100.00;101933.59;5117056;27;65974;-77
2022/11/10 02:20:44;;;;;;;;;18.75;13.75;;;;;11.23;100.00;101937.16;5116606;27;60433;-77
2022/11/10 02:23:34;;;;;;;;;14.50;10.00;;;;;11.22;100.00;101925.69;5117830;27;45414;-76
2022/11/10 02:26:01;;;;;;;;;14.50;10.50;;;;;11.16;100.00;101922.91;5109051;27;46272;-77
2022/11/10 02:28:26;;;;;;;;;13.00;10.00;;;;;11.18;100.00;101931.75;5117925;27;45502;-76
2022/11/10 02:30:52;;;;;;;;;15.75;8.75;;;;;11.14;100.00;101924.63;5116577;27;59817;-78
2022/11/10 02:33:18;;;;;;;;;12.25;9.75;;;;;11.12;100.00;101930.69;5117897;27;45475;-78
2022/11/10 02:35:44;;;;;;;;;14.25;11.25;;;;;11.14;100.00;101936.94;5116772;27;46578;-77
2022/11/10 02:38:09;;;;;;;;;13.50;10.00;;;;;11.09;100.00;101928.00;5118049;27;45169;-77
2022/11/10 02:40:35;;;;;;;;;16.00;9.00;;;;;11.11;100.00;101934.22;5117353;27;45161;-76
2022/11/10 02:43:02;;;;;;;;;9.75;9.75;;;;;11.10;100.00;101935.97;5117528;27;46612;-77
2022/11/10 02:45:27;;;;;;;;;7.50;7.50;;;;;11.05;100.00;101926.13;5098583;27;47716;-76
2022/11/10 02:47:52;;;;;;;;;14.00;10.50;;;;;11.04;100.00;101933.16;5116079;27;67432;-77
2022/11/10 02:50:18;;;;;;;;;9.25;7.75;;;;;11.06;100.00;101941.13;5117288;27;64826;-76
2022/11/10 02:52:43;;;;;;;;;10.50;8.25;;;;;10.99;100.00;101934.78;5097872;27;48525;-76
2022/11/10 02:55:08;;;;;;;;;13.00;8.50;;;;;11.02;100.00;101943.69;5116944;27;67096;-77
2022/11/10 02:57:34;;;;;;;;;11.00;9.25;;;;;10.98;100.00;101940.94;5117434;27;45523;-76
2022/11/10 02:59:59;;;;;;;;;10.00;6.50;;;;;11.02;100.00;101942.78;5116708;27;58203;-77
2022/11/10 03:02:25;;;;;;;;;7.50;6.50;;;;;10.99;100.00;101938.31;5113409;27;57884;-76
2022/11/10 03:04:50;;;;;;;;;9.50;8.00;;;;;10.94;100.00;101933.75;5116068;27;46154;-76
2022/11/10 03:07:15;;;;;;;;;10.25;7.25;;;;;10.93;100.00;101932.88;5116236;27;65226;-76
2022/11/10 03:09:41;;;;;;;;;11.75;9.00;;;;;10.96;100.00;101937.31;5117371;27;45440;-76
2022/11/10 03:12:06;;;;;;;;;8.50;8.00;;;;;10.96;100.00;101940.84;5108094;27;64239;-77
2022/11/10 03:14:31;;;;;;;;;9.00;4.75;;;;;10.95;100.00;101944.38;5116533;27;64819;-76
2022/11/10 03:16:57;;;;;;;;;8.50;5.50;;;;;10.95;100.00;101954.03;5116047;27;67677;-77
2022/11/10 03:19:22;;;;;;;;;9.50;8.50;;;;;10.92;100.00;101949.59;5116539;27;60388;-77
2022/11/10 03:21:47;;;;;;;;;6.50;6.25;;;;;10.90;100.00;101948.63;5109951;27;55579;-76
2022/11/10 03:24:13;;;;;;;;;7.25;5.25;;;;;10.89;100.00;101938.91;5094492;27;64736;-77
2022/11/10 03:26:38;;;;;;;;;13.00;9.00;;;;;10.83;100.00;101951.97;5115505;27;66034;-77
2022/11/10 03:29:03;;;;;;;;;9.00;6.75;;;;;10.80;100.00;101943.94;5104337;27;64183;-76
2022/11/10 03:31:28;;;;;;;;;7.25;5.75;;;;;10.82;100.00;101946.66;5115854;27;58414;-76
2022/11/10 03:33:54;;;;;;;;;10.25;7.25;;;;;10.78;100.00;101950.94;5116672;27;55247;-77
2022/11/10 03:36:19;;;;;;;;;12.25;9.50;;;;;10.79;100.00;101960.66;5115733;27;66925;-76
2022/11/10 03:38:44;;;;;;;;;7.50;7.50;;;;;10.77;100.00;101957.06;5098776;27;50991;-77
2022/11/10 03:41:10;;;;;;;;;11.00;7.00;;;;;10.75;100.00;101959.66;5118338;27;56598;-76
2022/11/10 03:43:35;;;;;;;;;10.75;7.25;;;;;10.74;100.00;101954.34;5120621;27;46680;-76
2022/11/10 03:46:00;;;;;;;;;10.00;7.00;;;;;10.76;100.00;101960.59;5119488;27;63535;-77
2022/11/10 03:48:26;;;;;;;;;7.50;7.50;;;;;10.73;100.00;101958.72;5120882;27;45483;-76
2022/11/10 03:50:51;;;;;;;;;10.50;7.25;;;;;10.76;100.00;101968.50;5119154;27;63774;-76
2022/11/10 03:53:16;;;;;;;;;8.00;7.25;;;;;10.71;100.00;101964.84;5118933;27;64667;-77
2022/11/10 03:55:42;;;;;;;;;7.75;7.00;;;;;10.68;100.00;101960.34;5119757;27;65398;-76
2022/11/10 03:58:07;;;;;;;;;7.50;7.00;;;;;10.71;100.00;101971.00;5101236;27;59974;-75
2022/11/10 04:00:32;;;;;;;;;7.00;5.00;;;;;10.67;100.00;101966.47;5119773;27;45406;-76
2022/11/10 04:02:58;;;;;;;;;8.75;6.25;;;;;10.70;100.00;101973.59;5119359;27;71615;-75
2022/11/10 04:10:56;;;;;;;;;7.00;4.00;;;;;10.61;100.00;101973.34;5116265;27;45385;-76
2022/11/10 04:16:05;;;;;;;;;8.50;6.25;;;;;10.59;100.00;101969.75;5115552;27;45237;-76
2022/11/10 04:18:31;;;;;;;;;6.75;4.75;;;;;10.64;100.00;101973.41;5120352;27;45255;-75
2022/11/10 04:20:58;;;;;;;;;7.25;4.00;;;;;10.59;100.00;101977.66;5118859;27;45548;-76
2022/11/10 04:23:25;;;;;;;;;7.75;4.25;;;;;10.62;100.00;101988.34;5119981;27;46303;-77
2022/11/10 04:28:43;;;;;;;;;5.75;4.75;;;;;10.56;100.00;101981.13;5115694;27;45326;-76
2022/11/10 04:31:09;;;;;;;;;3.25;2.25;;;;;10.59;100.00;101993.50;5120337;27;45563;-76
2022/11/10 04:33:35;;;;;;;;;4.75;3.25;;;;;10.53;100.00;101999.50;5119437;27;46698;-76
2022/11/10 04:36:00;;;;;;;;;4.00;2.67;;;;;10.56;100.00;102007.53;5113234;27;45417;-75
2022/11/10 04:38:26;;;;;;;;;3.00;3.00;;;;;10.52;100.00;101994.19;5119242;27;45564;-77
2022/11/10 04:40:51;;;;;;;;;6.25;2.25;;;;;10.53;100.00;101990.69;5118992;27;53447;-76
2022/11/10 04:43:16;;;;;;;;;2.75;2.50;;;;;10.56;100.00;101996.97;5099058;27;46620;-77
2022/11/10 04:45:42;;;;;;;;;3.25;3.00;;;;;10.59;100.00;102006.72;5118328;27;57358;-75
2022/11/10 04:48:08;;;;;;;;;3.25;3.25;;;;;10.55;100.00;102004.84;5120083;27;46166;-77
2022/11/10 04:50:33;;;;;;;;;2.00;2.00;;;;;10.57;100.00;102013.72;5118405;27;56246;-77
2022/11/10 04:52:58;;;;;;;;;5.00;3.00;;;;;10.56;100.00;102012.81;5117789;27;69879;-76
2022/11/10 04:55:24;;;;;;;;;4.50;2.00;;;;;10.62;100.00;102030.59;5118291;27;64517;-76
2022/11/10 04:57:49;;;;;;;;;7.75;2.75;;;;;10.56;100.00;102011.94;5118047;27;56868;-76
2022/11/10 05:00:15;;;;;;;;;3.67;3.67;;;;;10.60;100.00;102024.34;5118938;27;45271;-77
2022/11/10 05:02:40;;;;;;;;;3.00;3.00;;;;;10.59;100.00;102027.84;5119037;27;46242;-76
2022/11/10 05:05:06;;;;;;;;;3.67;3.00;;;;;10.54;100.00;102032.97;5118996;27;60745;-76
2022/11/10 05:07:31;;;;;;;;;4.00;2.67;;;;;10.51;100.00;102035.56;5118837;27;45395;-76
2022/11/10 05:09:56;;;;;;;;;8.00;2.50;;;;;10.52;100.00;102031.16;5118311;27;58011;-76
2022/11/10 05:12:22;;;;;;;;;7.00;3.00;;;;;10.51;100.00;102039.94;5118608;27;68358;-75
2022/11/10 05:14:47;;;;;;;;;4.00;3.00;;;;;10.49;100.00;102047.78;5118571;27;63089;-76
2022/11/10 05:17:12;;;;;;;;;5.33;3.33;;;;;10.47;100.00;102044.22;5118058;27;62215;-76
2022/11/10 05:19:38;;;;;;;;;3.00;3.00;;;;;10.51;100.00;102074.28;5116980;27;56456;-76
2022/11/10 05:22:04;;;;;;;;;6.00;3.00;;;;;10.49;100.00;102069.84;5117640;27;65841;-77
2022/11/10 05:24:30;;;;;;;;;6.50;3.00;;;;;10.49;100.00;102072.47;5118584;27;45271;-75
2022/11/10 05:26:55;;;;;;;;;3.00;3.00;;;;;10.47;100.00;102076.78;5117638;27;55552;-77
2022/11/10 05:29:20;;;;;;;;;3.00;3.00;;;;;10.44;100.00;102075.81;5118415;27;59580;-77
2022/11/10 05:31:46;;;;;;;;;3.00;3.00;;;;;10.41;100.00;102073.06;5118534;27;53132;-76
2022/11/10 05:34:11;;;;;;;;;3.75;3.75;;;;;10.44;100.00;102074.09;5117563;27;68326;-77
2022/11/10 05:36:36;;;;;;;;;6.33;3.67;;;;;10.44;100.00;102086.38;5117706;27;62588;-75
2022/11/10 05:39:02;;;;;;;;;3.00;3.00;;;;;10.43;100.00;102089.84;5116672;27;58881;-75
2022/11/10 05:41:27;;;;;;;;;5.00;3.75;;;;;10.35;100.00;102075.53;5118559;27;46516;-75
2022/11/10 05:43:52;;;;;;;;;6.50;4.00;;;;;10.37;100.00;102076.47;5118767;27;45333;-76
2022/11/10 05:46:18;;;;;;;;;5.00;3.50;;;;;10.35;100.00;102079.06;5118786;27;45209;-75
2022/11/10 05:48:43;;;;;;;;;3.00;3.00;;;;;10.39;100.00;102094.16;5111535;27;45622;-76
2022/11/10 05:51:09;;;;;;;;;7.25;4.00;;;;;10.36;100.00;102088.78;5116766;27;57564;-76
2022/11/10 05:53:34;;;;;;;;;5.50;3.75;;;;;10.37;100.00;102095.84;5115556;27;45460;-75
2022/11/10 05:55:59;;;;;;;;;2.67;2.67;;;;;10.36;100.00;102099.31;5118332;27;58449;-74
2022/11/10 05:58:25;;;;;;;;;4.00;2.25;;;;;10.30;100.00;102087.69;5118676;27;45300;-73
2022/11/10 06:00:50;;;;;;;;;6.25;4.00;;;;;10.27;100.00;102083.19;5104763;27;65270;-76
2022/11/10 06:03:17;;;;;;;;;3.67;3.67;;;;;10.31;100.00;102095.66;5113776;27;45389;-76
2022/11/10 06:05:43;;;;;;;;;4.00;3.00;;;;;10.31;100.00;102092.09;5116495;27;45301;-74
2022/11/10 06:08:08;;;;;;;;;4.00;3.33;;;;;10.30;100.00;102098.25;5114675;27;55235;-74
2022/11/10 06:10:35;;;;;;;;;10.00;4.50;;;;;10.25;100.00;102095.44;5117967;27;47635;-74
2022/11/10 06:13:00;;;;;;;;;3.33;3.33;;;;;10.29;100.00;102101.72;5115930;27;45584;-74
2022/11/10 06:15:26;;;;;;;;;6.25;6.00;;;;;10.28;100.00;102108.75;5115521;27;45382;-75
2022/11/10 06:17:52;;;;;;;;;7.00;4.00;;;;;10.25;100.00;102098.09;5118077;27;45429;-75
2022/11/10 06:20:18;;;;;;;;;4.75;4.50;;;;;10.25;100.00;102099.84;5116561;27;46369;-74
2022/11/10 06:22:57;;;;;;;;;7.25;5.75;;;;;10.22;100.00;102092.66;5115633;27;45379;-75
2022/11/10 06:25:23;;;;;;;;;3.00;3.00;;;;;10.23;100.00;102103.31;5115847;27;45531;-74
2022/11/10 06:27:48;;;;;;;;;7.50;4.50;;;;;10.16;100.00;102088.09;5117093;27;54908;-74
2022/11/10 06:30:14;;;;;;;;;3.25;3.25;;;;;10.18;100.00;102096.06;5116136;27;58078;-74
2022/11/10 06:32:42;;;;;;;;;3.25;3.25;;;;;10.21;100.00;102110.25;5117982;27;45257;-74
2022/11/10 06:35:08;;;;;;;;;4.00;4.00;;;;;10.14;100.00;102102.09;5114627;27;45330;-74
2022/11/10 06:37:33;;;;;;;;;6.00;3.50;;;;;10.17;100.00;102116.28;5112599;27;45448;-74
2022/11/10 06:39:58;;;;;;;;;7.00;6.00;;;;;10.18;100.00;102122.47;5114522;27;72467;-75
2022/11/10 06:42:24;;;;;;;;;7.50;7.50;;;;;10.13;100.00;102114.38;5111169;27;64640;-75
2022/11/10 06:44:49;;;;;;;;;5.00;3.50;;;;;10.14;100.00;102128.47;5115406;27;61707;-75
2022/11/10 06:47:15;;;;;;;;;4.25;4.00;;;;;10.13;100.00;102124.06;5117124;27;46159;-75
2022/11/10 06:49:40;;;;;;;;;4.25;4.25;;;;;10.12;100.00;102125.81;5116325;27;47270;-75
2022/11/10 06:52:06;;;;;;;;;4.00;3.00;;;;;10.16;100.00;102135.59;5106830;27;66664;-74
2022/11/10 06:54:31;;;;;;;;;3.50;3.50;;;;;10.10;100.00;102140.66;5104885;27;60280;-75
2022/11/10 06:56:56;;;;;;;;;10.00;3.75;;;;;10.16;100.00;102145.25;5105068;27;59674;-75
2022/11/10 06:59:22;;;;;;;;;27.75;22.25;;;;;10.12;100.00;102145.97;5113175;27;46190;-74
2022/11/10 07:01:47;;;;;;;;;13.25;9.50;;;;;10.16;100.00;102161.09;5113949;27;51566;-74
2022/11/10 07:04:14;;;;;;;;;13.00;7.25;;;;;10.14;100.00;102160.16;5102146;27;45556;-73
2022/11/10 07:06:40;;;;;;;;;6.50;6.25;;;;;10.16;100.00;102159.34;5105186;27;45548;-75
2022/11/10 07:09:06;;;;;;;;;11.50;6.50;;;;;10.14;100.00;102154.88;5115191;27;47461;-74
2022/11/10 07:11:31;;;;;;;;;5.50;5.25;;;;;10.18;100.00;102169.97;5115157;27;45460;-75
2022/11/10 07:13:56;;;;;;;;;4.00;4.00;;;;;10.17;100.00;102176.06;5113799;27;53377;-76
2022/11/10 07:16:22;;;;;;;;;6.50;6.50;;;;;10.15;100.00;102176.03;5117199;27;59553;-74
2022/11/10 07:18:47;;;;;;;;;4.00;4.00;;;;;10.16;100.00;102175.19;5097024;27;70791;-74
2022/11/10 07:21:13;;;;;;;;;9.00;7.00;;;;;10.22;100.00;102190.31;5097585;27;45467;-74
2022/11/10 07:23:38;;;;;;;;;7.50;4.00;;;;;10.23;100.00;102189.50;5096340;27;45825;-74
2022/11/10 07:26:04;;;;;;;;;6.50;6.00;;;;;10.26;100.00;102189.63;5089554;27;53221;-73
2022/11/10 07:28:29;;;;;;;;;3.50;3.50;;;;;10.23;100.00;102187.78;5096557;27;46861;-76
2022/11/10 07:30:54;;;;;;;;;3.00;3.00;;;;;10.26;100.00;102200.19;5082944;27;45578;-75
2022/11/10 07:33:20;;;;;;;;;8.33;4.00;;;;;10.29;100.00;102192.38;5084398;27;45864;-75
2022/11/10 07:35:54;;;;;;;;;4.00;4.00;;;;;10.33;100.00;102207.47;5082755;27;55948;-75
2022/11/10 07:38:19;;;;;;;;;5.75;4.00;;;;;10.36;100.00;102204.03;5085151;27;47546;-76
2022/11/10 07:40:44;;;;;;;;;8.67;5.33;;;;;10.41;100.00;102216.56;5095349;27;45868;-75
2022/11/10 07:43:10;;;;;;;;;4.00;4.00;;;;;10.46;100.00;102217.59;5097797;27;60506;-75
2022/11/10 07:45:35;;;;;;;;;4.75;3.00;;;;;10.46;100.00;102214.97;5098024;27;45341;-74
2022/11/10 07:48:02;;;;;;;;;5.33;5.00;;;;;10.53;100.00;102221.34;5091021;27;62556;-75
2022/11/10 07:50:28;;;;;;;;;6.00;3.00;;;;;10.53;100.00;102223.97;5096229;27;45565;-75
2022/11/10 07:53:02;;;;;;;;;2.00;2.00;;;;;10.60;100.00;102235.63;5098573;27;55398;-75
2022/11/10 07:55:27;;;;;;;;;4.00;4.00;;;;;10.63;100.00;102243.69;5095805;27;45480;-75
2022/11/10 07:57:57;;;;;;;;;4.00;3.00;;;;;10.65;100.00;102250.81;5091690;27;66200;-75
2022/11/10 08:00:22;;;;;;;;;5.25;5.25;;;;;10.66;100.00;102243.78;5096942;27;45569;-75
2022/11/10 08:02:48;;;;;;;;;6.00;3.75;;;;;10.72;100.00;102263.38;5096668;27;46044;-76
2022/11/10 08:05:13;;;;;;;;;5.00;4.00;;;;;10.76;100.00;102269.69;5086193;27;45603;-72
2022/11/10 08:07:39;;;;;;;;;4.50;4.50;;;;;10.78;100.00;102281.19;5080288;27;60680;-75
2022/11/10 08:10:05;;;;;;;;;7.25;4.75;;;;;10.82;100.00;102282.19;5092613;27;45465;-75
2022/11/10 08:12:31;;;;;;;;;7.00;6.00;;;;;10.83;100.00;102276.94;5082965;27;45468;-75
2022/11/10 08:14:56;;;;;;;;;7.33;3.67;;;;;10.87;100.00;102281.50;5079112;27;45789;-74
2022/11/10 08:17:21;;;;;;;;;7.25;5.25;;;;;10.89;100.00;102282.44;5086685;27;67100;-76
2022/11/10 08:19:47;;;;;;;;;7.00;5.25;;;;;10.94;100.00;102290.50;5095265;27;66436;-75
2022/11/10 08:22:13;;;;;;;;;5.33;4.00;;;;;10.99;100.00;102294.22;5094564;27;59000;-74
2022/11/10 08:24:38;;;;;;;;;4.50;4.50;;;;;10.98;100.00;102293.31;5093789;27;45389;-74
2022/11/10 08:27:03;;;;;;;;;5.00;5.00;;;;;11.05;100.00;102298.78;5089172;27;62758;-73
2022/11/10 08:29:29;;;;;;;;;5.00;3.00;;;;;11.09;100.00;102301.59;5078044;27;67364;-75
2022/11/10 08:31:54;;;;;;;;;2.33;2.00;;;;;11.13;100.00;102303.50;5089086;27;45368;-75
2022/11/10 08:34:21;;;;;;;;;4.00;4.00;;;;;11.16;100.00;102307.97;5094735;27;45799;-75
2022/11/10 08:36:46;;;;;;;;;4.00;4.00;;;;;11.21;100.00;102303.72;5090166;27;45627;-75
2022/11/10 08:39:11;;;;;;;;;4.00;3.00;;;;;11.33;100.00;102311.13;5091222;27;45522;-75
2022/11/10 08:41:37;;;;;;;;;10.00;5.25;;;;;11.36;100.00;102305.97;5092461;27;45403;-76
2022/11/10 08:44:02;;;;;;;;;8.33;4.00;;;;;11.45;100.00;102311.50;5095950;27;46873;-75
2022/11/10 08:46:27;;;;;;;;;3.00;3.00;;;;;11.46;100.00;102308.94;5094005;27;56236;-74
2022/11/10 08:48:53;;;;;;;;;11.50;9.00;;;;;11.55;100.00;102314.50;5092258;27;66117;-74
2022/11/10 08:51:18;;;;;;;;;19.00;14.50;;;;;11.60;100.00;102319.94;5093411;27;48964;-74
2022/11/10 08:53:44;;;;;;;;;17.25;15.25;;;;;11.58;100.00;102313.72;5095643;27;57780;-74
2022/11/10 08:56:10;;;;;;;;;9.75;8.50;;;;;11.58;100.00;102303.13;5091751;27;65981;-73
2022/11/10 08:58:36;;;;;;;;;11.00;8.00;;;;;11.68;100.00;102322.81;5089246;27;62951;-74
2022/11/10 09:01:07;;;;;;;;;4.67;3.67;;;;;11.75;100.00;102319.50;5092821;27;45492;-74
2022/11/10 09:03:32;;;;;;;;;7.67;4.67;;;;;11.83;100.00;102320.69;5090650;27;45455;-74
2022/11/10 09:05:57;;;;;;;;;4.00;4.00;;;;;11.91;100.00;102327.06;5088523;27;54287;-75
2022/11/10 09:08:23;;;;;;;;;6.67;4.00;;;;;11.87;100.00;102311.06;5088691;27;64778;-76
2022/11/10 09:10:51;;;;;;;;;4.00;4.00;;;;;12.01;100.00;102338.84;5085962;27;45571;-74
2022/11/10 09:13:17;;;;;;;;;5.33;3.00;;;;;12.07;100.00;102347.84;5092488;27;45563;-74
2022/11/10 09:15:43;;;;;;;;;8.33;4.00;;;;;12.09;100.00;102342.63;5093238;27;45981;-75
2022/11/10 09:18:10;;;;;;;;;6.67;3.00;;;;;12.19;100.00;102349.06;5088894;27;45465;-73
2022/11/10 09:20:36;;;;;;;;;4.67;4.00;;;;;12.26;100.00;102356.34;5095812;27;45573;-76
2022/11/10 09:23:10;;;;;;;;;9.33;4.00;;;;;12.30;100.00;102350.25;5093797;27;45230;-75
2022/11/10 09:25:37;;;;;;;;;4.67;4.00;;;;;12.33;100.00;102348.59;5084585;27;46802;-73
2022/11/10 09:28:02;;;;;;;;;3.00;2.00;;;;;12.41;100.00;102351.47;5088952;27;45489;-75
2022/11/10 09:30:28;;;;;;;;;5.67;4.00;;;;;12.41;100.00;102340.88;5082779;27;45625;-74
2022/11/10 09:32:57;;;;;;;;;7.00;3.67;;;;;12.52;100.00;102339.41;5083072;27;45503;-73
2022/11/10 09:35:23;;;;;;;;;5.67;3.00;;;;;12.53;100.00;102340.31;5081005;27;47457;-74
2022/11/10 09:37:48;;;;;;;;;3.00;3.00;;;;;12.61;100.00;102351.09;5098149;27;45454;-73
2022/11/10 09:40:17;;;;;;;;;3.00;3.00;;;;;12.61;100.00;102337.84;5084589;27;45998;-74
2022/11/10 09:42:42;;;;;;;;;5.00;2.00;;;;;12.69;100.00;102344.28;5091809;27;45599;-77
2022/11/10 09:45:26;;;;;;;;;6.00;3.00;;;;;12.75;100.00;102355.94;5095207;27;65271;-76
2022/11/10 09:48:30;;;;;;;;;4.00;3.00;;;;;12.84;100.00;102348.22;5093166;27;45352;-78
2022/11/10 09:51:00;;;;;;;;;3.00;1.67;;;;;12.89;100.00;102351.00;5106538;27;45455;-75
2022/11/10 09:53:51;;;;;;;;;3.67;2.67;;;;;12.97;100.00;102346.78;5092568;27;46128;-75
2022/11/10 09:56:22;;;;;;;;;2.33;2.33;;;;;13.00;100.00;102346.88;5092697;27;47077;-75
2022/11/10 09:58:47;;;;;;;;;3.67;3.33;;;;;13.01;100.00;102356.59;5083760;27;45479;-74
2022/11/10 10:01:18;;;;;;;;;3.67;2.67;;;;;13.08;100.00;102355.00;5087258;27;45407;-74
2022/11/10 10:03:48;;;;;;;;;3.00;3.00;;;;;13.11;100.00;102345.38;5088989;27;45317;-75
2022/11/10 10:06:15;;;;;;;;;5.00;2.00;;;;;13.16;100.00;102357.84;5088113;27;46873;-74
2022/11/10 10:09:05;;;;;;;;;2.00;2.00;;;;;13.25;100.00;102374.00;5088038;27;45552;-75
2022/11/10 10:12:09;;;;;;;;;3.67;3.00;;;;;13.31;100.00;102384.78;5093401;27;45416;-74
2022/11/10 10:14:56;;;;;;;;;4.00;2.00;;;;;13.36;100.00;102383.13;5077961;27;45567;-75
2022/11/10 10:17:43;;;;;;;;;3.00;2.00;;;;;13.43;100.00;102394.81;5087453;27;46546;-74
2022/11/10 10:20:18;;;;;;;;;1.00;1.00;;;;;13.43;100.00;102387.75;5101452;27;45441;-75
2022/11/10 10:22:58;;;;;;;;;6.00;2.00;;;;;13.48;100.00;102386.09;5106492;27;45611;-75
2022/11/10 10:25:25;;;;;;;;;2.00;2.00;;;;;13.55;100.00;102379.16;5111798;27;45319;-77
2022/11/10 10:28:03;;;;;;;;;1.67;1.00;;;;;13.62;100.00;102400.56;5106408;27;46192;-75
2022/11/10 10:30:28;;;;;;;;;2.33;2.00;;;;;13.62;100.00;102400.56;5114824;27;45444;-75
2022/11/10 10:33:00;;;;;;;;;3.00;1.33;;;;;13.70;100.00;102415.81;5113559;27;45212;-74
2022/11/10 10:35:27;;;;;;;;;2.67;2.00;;;;;13.71;100.00;102415.81;5095100;27;45487;-75
2022/11/10 10:37:54;;;;;;;;;3.67;1.67;;;;;13.81;100.00;102424.91;5090722;27;45525;-75
2022/11/10 10:40:22;;;;;;;;;2.33;2.00;;;;;13.87;100.00;102427.69;5109402;27;46507;-76
2022/11/10 10:42:47;;;;;;;;;3.00;3.00;;;;;13.93;100.00;102437.56;5110877;27;45407;-76
2022/11/10 10:45:24;;;;;;;;;4.33;2.00;;;;;13.93;100.00;102419.88;5110169;27;46027;-75
2022/11/10 10:47:51;;;;;;;;;3.00;1.00;;;;;13.99;100.00;102419.09;5114754;27;45643;-76
2022/11/10 10:50:31;;;;;;;;;1.33;1.33;;;;;14.05;100.00;102419.25;5095120;27;45393;-77
2022/11/10 10:53:14;;;;;;;;;1.00;1.00;;;;;14.12;100.00;102416.78;5110754;27;45410;-75
2022/11/10 10:56:00;;;;;;;;;1.00;1.00;;;;;14.22;100.00;102427.56;5113044;27;45461;-76
2022/11/10 10:58:26;;;;;;;;;4.00;2.00;;;;;14.25;100.00;102417.91;5113455;27;45842;-76
2022/11/10 11:00:58;;;;;;;;;3.00;2.00;;;;;14.25;100.00;102411.72;5115807;27;45467;-75
2022/11/10 11:03:39;;;;;;;;;2.33;2.00;;;;;14.33;100.00;102420.75;5112369;27;45290;-76
2022/11/10 11:06:06;;;;;;;;;5.33;2.00;;;;;14.37;100.00;102415.50;5115253;27;45386;-76
2022/11/10 11:08:32;;;;;;;;;3.00;2.00;;;;;14.37;100.00;102393.34;5113338;27;47671;-77
2022/11/10 11:11:07;;;;;;;;;2.67;1.00;;;;;14.46;100.00;102397.97;5111803;27;45449;-74
2022/11/10 11:13:33;;;;;;;;;3.00;2.00;;;;;14.46;100.00;102393.56;5115919;27;45393;-78
2022/11/10 11:16:02;;;;;;;;;3.00;1.00;;;;;14.56;100.00;102394.66;5094688;27;45456;-74
2022/11/10 11:18:29;;;;;;;;;5.00;2.00;;;;;14.60;100.00;102397.44;5113295;27;45466;-76
2022/11/10 11:21:08;;;;;;;;;5.00;2.33;;;;;14.62;100.00;102401.00;5091455;27;45643;-75
2022/11/10 11:23:50;;;;;;;;;2.33;2.00;;;;;14.64;100.00;102390.38;5115295;27;45418;-74
2022/11/10 11:26:35;;;;;;;;;3.67;2.00;;;;;14.70;100.00;102397.56;5112461;27;45597;-75